Airfield :







YOU CAN JOIN US ON...

 
LOGIN :

Register | Disclaimer

   EN    FR    IT 

 









Legend :    VFR   Marginal VFR   IFR   Intensive IFR   Very Intensive IFR
Visi :
Ceiling :
>= 8 km
>= 3000ft
5 to 8 km
1000 to 3000 ft
1500m to 5 km
500 to 1000 ft
800 to 1500m
200 to 500 ft
< 800m
< 200 ft
Symbols :   Thunderstorms  Fog  Heavy snow  Heavy precipitations  Wind > 20 kt






- Airport Elevation : 26 ft
- IATA code : BLA


SVBC - Gen. Jose Antonio Anzoategui I

CURRENT METAR :
  • 071503Z AUTO 20007KT NCD 30/24 Q1014

EXPIRED METARs :
  • 071500Z 00000KT 9999 FEW010 33/// Q1012
  • 071403Z AUTO 19005KT NCD 28/25 Q1014
  • 071303Z AUTO 16003KT NCD 26/24 Q1014

TAF TAF SVBC
Valid from the 07 at 12:00 until the 08 at 12:00 UTC


071000Z 0712/0812 08004KT 9999 SCT013 BKN010 TX33/0718Z TN22/0807Z
BECMG 0715/0720 07008KT 9999 SCT010 SCT070
SVZM FIR / South America



MET'MAP, your aeronautical weather chart ! - Copyright ORBIFLY December 2007 - Disclaimer

ORBIFLY MET'MAP TEAM :

Programming & Development : Alexandra Zaïnal
Original concept : Baudouin d'Aumeries
Technical & hardware support : Manuel Goepfert
Assistance : Marc-Olivier Méhu




SOURCES & CREDITS :

   NOAA